Time;durP1;ratioP1;P1;durP2;ratioP2;P2;SDS_P1;SDS_P2;PMS_P1;PMS_P2;Temp;Humidity;BMP_temperature;BMP_pressure;BME280_temperature;BME280_humidity;BME280_pressure;Samples;Min_cycle;Max_cycle;Signal;HPM_P1;HPM_P2
2023/06/04 00:00:02;;;;;;;5.43;2.78;;;;;;;17.43;39.97;102011.94;5066923;28;20074;-67
2023/06/04 00:02:27;;;;;;;5.07;2.50;;;;;;;17.40;40.09;102004.91;5072946;28;20028;-67
2023/06/04 00:04:53;;;;;;;4.65;2.42;;;;;;;17.39;40.29;102025.66;5076229;28;20077;-67
2023/06/04 00:07:19;;;;;;;5.28;2.45;;;;;;;17.30;40.53;102021.69;5073117;28;20028;-67
2023/06/04 00:09:46;;;;;;;3.88;2.22;;;;;;;17.32;40.69;102013.81;5077170;28;20059;-67
2023/06/04 00:12:12;;;;;;;5.15;2.38;;;;;;;17.27;40.87;102016.59;5070190;28;20040;-67
2023/06/04 00:14:37;;;;;;;2.10;1.90;;;;;;;17.29;40.82;102005.97;5078202;28;20039;-68
2023/06/04 00:17:03;;;;;;;4.78;2.67;;;;;;;17.28;41.06;102009.03;5073128;28;20028;-67
2023/06/04 00:19:28;;;;;;;7.53;2.17;;;;;;;17.21;40.88;102009.25;5087670;28;20429;-67
2023/06/04 00:21:53;;;;;;;4.70;2.50;;;;;;;17.14;41.57;102011.47;5090064;28;20036;-67
2023/06/04 00:24:18;;;;;;;3.78;2.30;;;;;;;17.16;41.25;102009.22;5090605;28;20032;-67
2023/06/04 00:26:44;;;;;;;4.70;2.60;;;;;;;17.17;41.36;102005.28;5088107;28;20047;-67
2023/06/04 00:29:10;;;;;;;4.68;2.65;;;;;;;17.21;41.36;102011.22;5090562;28;20758;-67
2023/06/04 00:31:35;;;;;;;6.75;3.00;;;;;;;17.20;41.40;102010.38;5073790;28;20044;-67
2023/06/04 00:34:01;;;;;;;6.03;2.40;;;;;;;17.15;41.60;102008.38;5063998;28;20452;-67
2023/06/04 00:36:26;;;;;;;3.63;2.60;;;;;;;17.10;41.76;102004.72;5068141;28;20089;-68
2023/06/04 00:38:51;;;;;;;5.95;2.20;;;;;;;17.15;41.60;102008.38;5087448;28;20042;-67
2023/06/04 00:41:17;;;;;;;3.72;2.60;;;;;;;17.07;41.92;102013.66;5090128;28;20024;-67
2023/06/04 00:43:45;;;;;;;4.43;2.45;;;;;;;17.02;42.19;102002.41;5090498;28;20016;-67
2023/06/04 00:46:17;;;;;;;5.88;2.30;;;;;;;17.06;42.03;102003.56;5084913;28;20043;-67
2023/06/04 00:48:43;;;;;;;3.00;2.35;;;;;;;17.04;42.20;101998.19;5070658;28;20032;-67
2023/06/04 00:51:08;;;;;;;4.93;2.80;;;;;;;16.92;42.58;102001.19;5077911;28;20029;-68
2023/06/04 00:53:34;;;;;;;4.68;2.40;;;;;;;16.90;42.38;102000.63;5065728;28;20044;-67
2023/06/04 00:55:59;;;;;;;6.30;2.60;;;;;;;16.96;42.61;101995.06;5069570;28;20130;-67
2023/06/04 00:58:25;;;;;;;4.28;2.63;;;;;;;16.85;42.86;101996.91;5090776;28;20036;-68
2023/06/04 01:00:56;;;;;;;3.72;2.10;;;;;;;16.75;43.01;102002.44;5085286;28;20581;-67
2023/06/04 01:03:29;;;;;;;2.90;2.30;;;;;;;16.79;42.83;101993.22;5090474;28;20020;-67
2023/06/04 01:06:04;;;;;;;4.85;1.95;;;;;;;16.80;42.71;101986.50;5070641;28;20025;-67
2023/06/04 01:08:30;;;;;;;3.90;1.98;;;;;;;16.81;42.84;102004.16;5067056;28;20020;-68
2023/06/04 01:10:56;;;;;;;4.05;2.30;;;;;;;16.90;42.60;102006.22;5050126;28;20033;-67
2023/06/04 01:13:22;;;;;;;5.03;2.30;;;;;;;16.72;43.15;101998.19;5067208;28;20044;-67
2023/06/04 01:15:47;;;;;;;4.07;2.20;;;;;;;16.75;43.34;102003.28;5072397;28;20127;-67
2023/06/04 01:18:27;;;;;;;3.80;2.30;;;;;;;16.71;43.32;102007.72;5090319;28;20128;-67
2023/06/04 01:21:07;;;;;;;3.88;2.40;;;;;;;16.62;43.62;102004.56;5090638;28;20028;-67
2023/06/04 01:23:45;;;;;;;3.13;2.15;;;;;;;16.63;43.56;102002.59;5082655;28;20040;-67
2023/06/04 01:26:12;;;;;;;3.58;2.10;;;;;;;16.60;43.90;102014.31;5073182;28;20423;-67
2023/06/04 01:28:37;;;;;;;6.65;2.30;;;;;;;16.59;43.86;102010.69;5091870;28;20125;-67
2023/06/04 01:31:07;;;;;;;4.05;2.65;;;;;;;16.45;44.40;102012.22;5093296;28;20475;-68
2023/06/04 01:33:33;;;;;;;4.25;2.20;;;;;;;16.42;44.62;102009.94;5073881;28;20408;-68
2023/06/04 01:35:58;;;;;;;4.43;2.40;;;;;;;16.40;44.43;102012.16;5064906;28;20039;-67
2023/06/04 01:38:23;;;;;;;5.15;2.30;;;;;;;16.49;44.05;102007.75;5074845;28;20031;-67
2023/06/04 01:40:50;;;;;;;5.15;2.35;;;;;;;16.47;44.41;102000.75;5069491;28;20553;-67
2023/06/04 01:43:16;;;;;;;3.92;2.22;;;;;;;16.50;44.27;102005.81;5072595;28;20031;-67
2023/06/04 01:45:41;;;;;;;7.25;2.60;;;;;;;16.46;44.34;102011.09;5063665;28;20197;-67
2023/06/04 01:48:06;;;;;;;3.28;2.63;;;;;;;16.44;44.42;101997.34;5071029;28;20024;-68
2023/06/04 01:50:32;;;;;;;6.22;2.10;;;;;;;16.42;44.59;102002.38;5092425;28;20074;-68
2023/06/04 01:52:58;;;;;;;4.07;2.50;;;;;;;16.41;44.59;101992.28;5083904;28;20039;-67
2023/06/04 01:55:25;;;;;;;3.92;2.10;;;;;;;16.36;44.59;102002.59;5085900;28;20110;-68
2023/06/04 01:57:50;;;;;;;3.45;2.30;;;;;;;16.28;44.93;102003.06;5072790;28;20032;-67
2023/06/04 02:00:16;;;;;;;3.17;2.05;;;;;;;16.27;44.91;102004.16;5071685;28;20032;-67
2023/06/04 02:02:43;;;;;;;7.55;2.28;;;;;;;16.19;45.11;102005.47;5073059;28;20028;-67
2023/06/04 02:05:09;;;;;;;5.45;2.35;;;;;;;16.20;45.03;102004.38;5052713;28;20040;-67
2023/06/04 02:07:38;;;;;;;3.88;2.47;;;;;;;16.24;45.02;102004.72;5072480;28;20024;-67
2023/06/04 02:10:08;;;;;;;4.30;2.50;;;;;;;16.25;45.06;102010.03;5069577;28;20064;-67
2023/06/04 02:12:35;;;;;;;3.83;2.30;;;;;;;16.06;45.64;102003.94;5076635;28;20056;-67
2023/06/04 02:15:00;;;;;;;4.38;2.35;;;;;;;16.08;45.79;102004.53;5062132;28;20484;-67
2023/06/04 02:17:26;;;;;;;4.10;2.40;;;;;;;16.01;45.94;102003.88;5064586;28;20040;-67
2023/06/04 02:19:51;;;;;;;2.92;2.25;;;;;;;15.99;46.10;101997.69;5066260;28;20051;-68
2023/06/04 02:22:17;;;;;;;5.15;2.30;;;;;;;15.88;46.26;102007.94;5068755;28;20036;-67
2023/06/04 02:24:43;;;;;;;5.20;2.38;;;;;;;15.93;46.17;101998.75;5072167;28;20020;-67
2023/06/04 02:27:09;;;;;;;4.03;2.45;;;;;;;15.86;46.29;101992.50;5071648;28;20046;-67
2023/06/04 02:29:35;;;;;;;4.65;2.47;;;;;;;15.84;45.97;102001.16;5071909;28;20042;-67
2023/06/04 02:32:01;;;;;;;2.75;2.30;;;;;;;15.83;46.47;102001.41;5069045;28;20021;-67
2023/06/04 02:34:26;;;;;;;3.22;1.90;;;;;;;15.80;46.29;101997.19;5063455;28;20107;-68
2023/06/04 02:36:52;;;;;;;4.68;2.40;;;;;;;15.81;46.28;101998.03;5055827;28;20050;-67
2023/06/04 02:39:20;;;;;;;4.30;2.28;;;;;;;15.77;46.44;102008.06;5067996;28;20023;-68
2023/06/04 02:41:46;;;;;;;5.05;2.20;;;;;;;15.72;46.75;102014.44;5077825;28;20039;-67
2023/06/04 02:44:12;;;;;;;3.47;2.42;;;;;;;15.70;47.00;102013.84;5054250;28;20021;-67
2023/06/04 02:46:37;;;;;;;4.57;2.30;;;;;;;15.67;47.18;102005.97;5064523;28;20067;-67
2023/06/04 02:49:03;;;;;;;5.95;2.35;;;;;;;15.64;46.59;102007.31;5075165;28;20023;-68
2023/06/04 02:51:28;;;;;;;3.92;2.33;;;;;;;15.63;46.70;102001.94;5087772;28;20773;-67
2023/06/04 02:53:54;;;;;;;5.18;2.13;;;;;;;15.67;46.75;102004.00;5077760;28;20032;-67
2023/06/04 02:56:20;;;;;;;3.85;2.50;;;;;;;15.66;46.80;102012.66;5063115;28;20037;-67
2023/06/04 02:58:58;;;;;;;3.03;2.38;;;;;;;15.65;46.84;102006.22;5075928;28;20467;-67
2023/06/04 03:01:24;;;;;;;3.78;2.80;;;;;;;15.59;46.90;102017.56;5069929;28;20044;-67
2023/06/04 03:03:50;;;;;;;5.80;2.58;;;;;;;15.52;46.81;102005.72;5069923;28;20098;-67
2023/06/04 03:06:17;;;;;;;3.85;2.33;;;;;;;15.63;46.78;102013.16;5071952;28;20090;-67
2023/06/04 03:08:43;;;;;;;4.80;2.78;;;;;;;15.58;46.76;102015.88;5070475;28;20033;-67
2023/06/04 03:11:09;;;;;;;4.30;2.40;;;;;;;15.46;47.17;102011.25;5064520;28;20039;-67
2023/06/04 03:13:35;;;;;;;5.78;2.40;;;;;;;15.48;47.50;102010.97;5071817;28;20526;-67
2023/06/04 03:16:01;;;;;;;7.22;2.47;;;;;;;15.44;47.11;102009.78;5071659;28;20037;-67
2023/06/04 03:18:27;;;;;;;4.28;2.72;;;;;;;15.35;47.33;102006.59;5076413;28;20117;-67
2023/06/04 03:20:53;;;;;;;4.53;2.83;;;;;;;15.34;47.49;102006.88;5070548;28;20032;-67
2023/06/04 03:23:19;;;;;;;4.28;2.60;;;;;;;15.37;47.31;102003.56;5069291;28;20032;-68
2023/06/04 03:25:44;;;;;;;4.82;2.58;;;;;;;15.39;47.15;102004.97;5083828;28;20110;-68
2023/06/04 03:28:10;;;;;;;4.43;2.60;;;;;;;15.41;47.14;101999.97;5075578;28;20535;-68
2023/06/04 03:30:35;;;;;;;5.68;2.65;;;;;;;15.46;47.00;101993.59;5071255;28;20040;-68
2023/06/04 03:33:00;;;;;;;3.00;2.63;;;;;;;15.39;47.08;101995.75;5070717;28;20029;-68
2023/06/04 03:35:26;;;;;;;4.40;2.60;;;;;;;15.41;47.17;101993.53;5070524;28;20028;-68
2023/06/04 03:37:51;;;;;;;8.27;2.63;;;;;;;15.47;46.93;102001.72;5074439;28;20028;-67
2023/06/04 03:40:16;;;;;;;5.38;2.65;;;;;;;15.43;47.28;102003.34;5091917;28;20056;-68
2023/06/04 03:42:42;;;;;;;7.93;2.83;;;;;;;15.39;47.07;101999.38;5082554;28;20365;-67
2023/06/04 03:45:08;;;;;;;4.28;2.42;;;;;;;15.30;47.48;102002.88;5070693;28;20442;-68
2023/06/04 03:47:33;;;;;;;3.38;2.47;;;;;;;15.31;47.30;102008.22;5071149;28;20401;-68
2023/06/04 03:49:58;;;;;;;6.03;2.80;;;;;;;15.32;47.24;102012.69;5070831;28;20111;-69
2023/06/04 03:52:23;;;;;;;4.25;2.70;;;;;;;15.20;47.60;102010.00;5069813;28;20055;-68
2023/06/04 03:54:49;;;;;;;4.55;2.80;;;;;;;15.32;47.27;102011.84;5078564;28;20051;-68
2023/06/04 03:57:14;;;;;;;4.82;2.67;;;;;;;15.33;47.18;102010.78;5070607;28;20027;-68
2023/06/04 03:59:40;;;;;;;3.75;2.30;;;;;;;15.30;47.20;102006.53;5087642;28;20028;-69
2023/06/04 04:02:05;;;;;;;2.80;2.50;;;;;;;15.17;47.45;102009.69;5064796;28;20440;-68
2023/06/04 04:04:32;;;;;;;5.43;2.47;;;;;;;15.11;47.73;102010.69;5050659;28;20523;-67
2023/06/04 04:07:00;;;;;;;6.72;3.22;;;;;;;15.11;47.56;102008.75;5051282;28;20025;-68
2023/06/04 04:09:25;;;;;;;3.90;2.47;;;;;;;15.07;47.71;102013.16;5050711;28;20476;-68
2023/06/04 04:11:50;;;;;;;3.97;2.40;;;;;;;15.16;47.47;101997.63;5058737;28;20032;-67
2023/06/04 04:14:16;;;;;;;4.43;2.72;;;;;;;15.24;47.20;102004.75;5080823;28;20049;-67
2023/06/04 04:16:41;;;;;;;3.90;2.42;;;;;;;15.17;47.52;102010.53;5070950;28;20127;-67
2023/06/04 04:19:07;;;;;;;4.72;2.50;;;;;;;15.18;46.96;102012.22;5061849;28;20081;-67
2023/06/04 04:21:36;;;;;;;4.32;2.20;;;;;;;15.11;47.55;102011.53;5050970;28;20357;-67
2023/06/04 04:24:02;;;;;;;6.25;2.63;;;;;;;15.08;47.41;102012.06;5067796;28;20020;-68
2023/06/04 04:26:28;;;;;;;3.17;2.40;;;;;;;15.05;47.70;102018.19;5084602;28;20039;-68
2023/06/04 04:28:57;;;;;;;3.42;2.58;;;;;;;15.06;47.81;102013.44;5080195;28;20036;-67
2023/06/04 04:31:26;;;;;;;5.53;2.45;;;;;;;14.99;47.74;102010.78;5068590;28;20055;-67
2023/06/04 04:33:52;;;;;;;3.42;2.50;;;;;;;15.01;48.19;102011.38;5066798;28;20039;-67
2023/06/04 04:36:18;;;;;;;5.05;2.80;;;;;;;15.01;47.77;102011.38;5063388;28;20032;-68
2023/06/04 04:38:53;;;;;;;5.53;3.10;;;;;;;14.95;48.13;102013.25;5069399;28;20029;-67
2023/06/04 04:41:20;;;;;;;5.32;2.50;;;;;;;14.94;48.32;102017.16;5069716;28;20051;-67
2023/06/04 04:43:46;;;;;;;4.55;2.72;;;;;;;15.08;47.78;102016.81;5070185;28;20037;-67
2023/06/04 04:46:11;;;;;;;4.72;3.15;;;;;;;15.07;48.10;102026.28;5077355;28;20031;-68
2023/06/04 04:48:38;;;;;;;4.32;2.60;;;;;;;15.15;47.58;102020.28;5071088;28;20109;-67
2023/06/04 04:51:03;;;;;;;4.97;2.78;;;;;;;15.24;47.54;102015.94;5088445;28;20490;-67
2023/06/04 04:53:29;;;;;;;4.95;2.70;;;;;;;15.19;47.66;102027.06;5088275;28;20032;-68
2023/06/04 04:55:54;;;;;;;3.45;2.63;;;;;;;15.26;47.38;102024.94;5088736;28;20147;-67
2023/06/04 04:58:20;;;;;;;5.28;3.03;;;;;;;15.22;47.66;102026.53;5094950;28;20028;-68
2023/06/04 05:00:47;;;;;;;3.30;2.97;;;;;;;15.21;47.89;102022.06;5090358;28;20031;-68
2023/06/04 05:03:12;;;;;;;7.18;2.70;;;;;;;15.24;47.80;102024.31;5058129;28;20118;-67
2023/06/04 05:05:38;;;;;;;10.07;2.90;;;;;;;15.25;47.83;102023.25;5092452;28;20118;-67
2023/06/04 05:08:03;;;;;;;5.78;2.90;;;;;;;15.29;47.98;102024.44;5093485;28;20024;-67
2023/06/04 05:10:28;;;;;;;5.80;3.00;;;;;;;15.18;48.65;102023.41;5075026;28;20027;-68
2023/06/04 05:12:57;;;;;;;5.75;2.90;;;;;;;15.30;48.08;102040.09;5073756;28;20048;-68
2023/06/04 05:15:24;;;;;;;7.63;3.45;;;;;;;15.29;47.97;102035.63;5077442;28;20035;-67
2023/06/04 05:17:52;;;;;;;6.90;2.90;;;;;;;15.32;48.07;102037.88;5088744;28;20463;-68
2023/06/04 05:20:18;;;;;;;3.58;2.85;;;;;;;15.32;48.04;102039.81;5072857;28;20032;-67
2023/06/04 05:22:45;;;;;;;3.58;2.83;;;;;;;15.32;48.44;102028.63;5071296;28;20032;-67
2023/06/04 05:25:11;;;;;;;4.93;2.88;;;;;;;15.38;48.52;102027.63;5088412;28;20495;-67
2023/06/04 05:27:36;;;;;;;4.00;2.88;;;;;;;15.42;47.79;102032.44;5094155;28;20031;-67
2023/06/04 05:30:03;;;;;;;6.72;2.90;;;;;;;15.51;47.73;102035.66;5071812;28;20033;-67
2023/06/04 05:32:28;;;;;;;4.25;2.80;;;;;;;15.60;47.23;102034.13;5054499;28;20021;-67
2023/06/04 05:34:56;;;;;;;6.07;2.80;;;;;;;15.73;47.21;102030.13;5057025;28;20032;-67
2023/06/04 05:37:23;;;;;;;5.05;2.90;;;;;;;15.69;47.51;102026.16;5059611;28;20439;-67
2023/06/04 05:39:49;;;;;;;3.95;2.70;;;;;;;15.77;47.08;102027.66;5075027;28;20762;-67
2023/06/04 05:42:15;;;;;;;4.53;2.63;;;;;;;15.86;46.67;102029.72;5092747;28;20063;-68
2023/06/04 05:44:40;;;;;;;4.25;2.92;;;;;;;15.84;46.60;102031.97;5063748;28;20955;-67
2023/06/04 05:47:06;;;;;;;4.07;2.78;;;;;;;15.81;46.50;102024.06;5077948;28;20028;-67
2023/06/04 05:49:32;;;;;;;6.55;2.90;;;;;;;15.93;46.45;102030.38;5090855;28;20024;-67
2023/06/04 05:51:57;;;;;;;6.90;2.70;;;;;;;15.94;46.44;102023.66;5068531;28;20028;-67
2023/06/04 05:54:23;;;;;;;5.15;3.10;;;;;;;16.01;46.27;102022.63;5071845;28;20375;-68
2023/06/04 05:56:48;;;;;;;6.55;3.30;;;;;;;16.06;46.09;102022.69;5068771;28;20025;-67
2023/06/04 05:59:14;;;;;;;4.10;2.88;;;;;;;16.07;46.08;102033.66;5064900;28;20024;-68
2023/06/04 06:01:40;;;;;;;6.57;3.00;;;;;;;16.07;46.17;102027.19;5075423;28;20020;-67
2023/06/04 06:04:05;;;;;;;4.18;3.03;;;;;;;16.12;46.17;102033.72;5091238;28;20090;-67
2023/06/04 06:06:30;;;;;;;4.00;2.85;;;;;;;16.20;46.06;102030.44;5092592;28;20023;-70
2023/06/04 06:08:57;;;;;;;5.22;2.90;;;;;;;16.34;45.66;102025.25;5057978;28;20053;-68
2023/06/04 06:11:23;;;;;;;7.60;3.55;;;;;;;16.37;45.57;102035.94;5064027;28;20230;-65
2023/06/04 06:13:48;;;;;;;7.68;3.10;;;;;;;16.43;45.37;102034.91;5072380;28;20559;-67
2023/06/04 06:16:14;;;;;;;3.22;2.80;;;;;;;16.50;45.07;102034.69;5061436;28;20112;-66
2023/06/04 06:18:39;;;;;;;4.97;3.17;;;;;;;16.58;44.59;102033.34;5066602;28;20029;-67
2023/06/04 06:21:05;;;;;;;4.40;2.80;;;;;;;16.62;45.17;102032.59;5068450;28;20041;-66
2023/06/04 06:23:30;;;;;;;8.32;3.33;;;;;;;16.74;44.56;102032.44;5061031;28;20032;-68
2023/06/04 06:25:56;;;;;;;3.80;2.25;;;;;;;16.97;47.69;102045.25;5065838;28;20020;-68
2023/06/04 06:28:22;;;;;;;3.35;1.90;;;;;;;17.23;47.98;102042.66;5072044;28;20028;-66
2023/06/04 06:30:47;;;;;;;6.60;3.10;;;;;;;17.14;43.51;102040.38;5083035;28;20032;-65
2023/06/04 06:33:13;;;;;;;2.13;1.92;;;;;;;17.31;44.45;102042.16;5083549;28;20056;-66
2023/06/04 06:35:38;;;;;;;2.97;1.90;;;;;;;17.45;46.09;102051.81;5089316;28;20036;-67
2023/06/04 06:38:03;;;;;;;4.20;2.22;;;;;;;17.60;46.13;102048.25;5091195;28;20051;-64
2023/06/04 06:40:30;;;;;;;4.13;2.03;;;;;;;17.79;45.13;102046.72;5071690;28;20024;-64
2023/06/04 06:42:55;;;;;;;5.88;2.08;;;;;;;17.88;43.69;102050.72;5066118;28;20032;-65
2023/06/04 06:45:21;;;;;;;4.85;2.08;;;;;;;17.91;43.30;102050.13;5080411;28;20493;-64
2023/06/04 06:47:46;;;;;;;3.10;2.35;;;;;;;17.97;43.14;102053.00;5083998;28;20468;-65
2023/06/04 06:50:11;;;;;;;4.55;2.20;;;;;;;18.08;42.35;102057.53;5071908;28;20564;-65
2023/06/04 06:52:37;;;;;;;2.25;1.80;;;;;;;18.22;43.51;102058.69;5072948;28;20031;-66
2023/06/04 06:55:06;;;;;;;2.83;1.80;;;;;;;18.36;43.09;102048.66;5073639;28;20553;-65
2023/06/04 06:57:33;;;;;;;4.32;2.10;;;;;;;18.43;41.85;102055.94;5066076;28;20036;-64
2023/06/04 06:59:58;;;;;;;3.78;2.10;;;;;;;18.51;41.91;102061.91;5066206;28;20768;-64
2023/06/04 07:02:24;;;;;;;2.65;1.60;;;;;;;18.61;41.56;102066.69;5082849;28;20031;-64
2023/06/04 07:04:49;;;;;;;3.70;2.15;;;;;;;18.58;41.38;102065.28;5069903;28;20495;-63
2023/06/04 07:07:14;;;;;;;6.50;2.30;;;;;;;18.61;40.31;102073.16;5081321;28;20047;-64
2023/06/04 07:09:40;;;;;;;3.58;1.80;;;;;;;18.70;40.86;102070.66;5087189;28;20031;-63
2023/06/04 07:12:06;;;;;;;2.83;2.00;;;;;;;18.74;41.15;102069.00;5075125;28;20114;-65
2023/06/04 07:14:31;;;;;;;7.68;2.85;;;;;;;18.69;39.20;102066.16;5067102;28;20441;-65
2023/06/04 07:16:57;;;;;;;5.97;2.90;;;;;;;18.67;38.66;102065.59;5069117;28;20032;-65
2023/06/04 07:19:22;;;;;;;3.15;1.83;;;;;;;18.88;40.71;102069.31;5064680;28;20081;-65
2023/06/04 07:21:47;;;;;;;8.23;2.30;;;;;;;18.88;40.11;102069.31;5067953;28;20040;-66
2023/06/04 07:24:13;;;;;;;4.35;2.92;;;;;;;18.97;40.01;102076.06;5067372;28;20028;-66
2023/06/04 07:26:38;;;;;;;3.88;2.40;;;;;;;19.02;39.65;102070.47;5055941;28;20105;-62
2023/06/04 07:29:03;;;;;;;7.03;3.00;;;;;;;18.96;40.04;102067.91;5069994;28;20020;-63
2023/06/04 07:31:29;;;;;;;4.20;2.58;;;;;;;19.07;39.33;102062.00;5073184;28;20090;-63
2023/06/04 07:33:54;;;;;;;4.32;2.50;;;;;;;19.12;38.24;102064.81;5065638;28;20040;-63
2023/06/04 07:36:20;;;;;;;3.83;2.55;;;;;;;19.21;39.71;102065.09;5070648;28;20033;-63
2023/06/04 07:38:45;;;;;;;4.25;1.90;;;;;;;19.35;39.87;102068.19;5070956;28;20034;-64
2023/06/04 07:41:11;;;;;;;7.00;2.72;;;;;;;19.38;38.99;102062.84;5070908;28;20052;-64
2023/06/04 07:43:36;;;;;;;2.88;2.50;;;;;;;19.48;39.27;102069.56;5070365;28;20052;-64
2023/06/04 07:46:02;;;;;;;3.20;2.08;;;;;;;19.62;39.46;102065.09;5071311;28;20032;-64
2023/06/04 07:48:30;;;;;;;3.60;2.40;;;;;;;19.67;37.76;102070.69;5070050;28;20031;-63
2023/06/04 07:50:59;;;;;;;3.97;2.90;;;;;;;19.62;36.52;102076.34;5063836;28;20036;-63
2023/06/04 07:53:25;;;;;;;3.92;2.60;;;;;;;19.64;36.90;102073.25;5051291;28;20032;-64
2023/06/04 07:55:51;;;;;;;3.22;2.63;;;;;;;19.71;37.05;102068.16;5050315;28;20051;-64
2023/06/04 07:58:16;;;;;;;5.90;2.67;;;;;;;19.70;36.24;102067.31;5050891;28;20025;-65
2023/06/04 08:00:42;;;;;;;4.32;2.20;;;;;;;19.81;37.36;102070.97;5050681;28;20037;-62
2023/06/04 08:03:07;;;;;;;4.47;3.00;;;;;;;19.78;35.32;102078.00;5052255;28;20043;-60
2023/06/04 08:05:33;;;;;;;4.28;2.92;;;;;;;19.79;35.00;102071.22;5078065;28;20031;-63
2023/06/04 08:07:59;;;;;;;5.45;2.65;;;;;;;19.89;36.04;102073.19;5066438;28;20033;-64
2023/06/04 08:10:24;;;;;;;3.13;1.75;;;;;;;19.99;35.96;102061.88;5069741;28;20031;-64
2023/06/04 08:12:49;;;;;;;3.17;2.40;;;;;;;20.02;35.07;102063.28;5070465;28;20161;-63
2023/06/04 08:15:15;;;;;;;4.15;2.40;;;;;;;20.05;34.09;102065.53;5070513;28;20035;-63
2023/06/04 08:17:41;;;;;;;2.75;2.38;;;;;;;20.04;35.12;102059.06;5069460;28;20374;-63
2023/06/04 08:20:06;;;;;;;3.00;2.63;;;;;;;20.13;34.69;102062.13;5070918;28;20028;-63
2023/06/04 08:22:32;;;;;;;3.50;2.40;;;;;;;20.18;34.55;102061.25;5070414;28;20305;-63
2023/06/04 08:24:57;;;;;;;3.67;2.45;;;;;;;20.26;33.99;102074.72;5065995;28;20124;-64
2023/06/04 08:27:22;;;;;;;3.55;2.70;;;;;;;20.29;34.20;102068.53;5070201;28;20514;-63
2023/06/04 08:29:48;;;;;;;4.43;2.47;;;;;;;20.37;34.60;102064.25;5069820;28;20476;-64
2023/06/04 08:32:13;;;;;;;4.00;2.33;;;;;;;20.41;34.38;102068.19;5069530;28;20097;-64
2023/06/04 08:34:39;;;;;;;4.25;2.75;;;;;;;20.45;32.87;102066.47;5070018;28;20039;-64
2023/06/04 08:37:04;;;;;;;4.63;2.45;;;;;;;20.49;33.15;102065.63;5070043;28;20058;-64
2023/06/04 08:39:30;;;;;;;2.25;1.80;;;;;;;20.53;31.30;102065.88;5070095;28;20025;-63
2023/06/04 08:42:01;;;;;;;4.78;2.00;;;;;;;20.62;32.87;102066.13;5067621;28;20024;-64
2023/06/04 08:44:27;;;;;;;3.45;1.90;;;;;;;20.61;31.95;102067.25;5050046;28;20036;-63
2023/06/04 08:46:56;;;;;;;2.90;1.88;;;;;;;20.59;30.46;102067.53;5049657;28;20040;-63
2023/06/04 08:49:22;;;;;;;4.28;2.35;;;;;;;20.67;31.95;102060.44;5050370;28;20435;-63
2023/06/04 08:51:48;;;;;;;4.95;2.00;;;;;;;20.83;33.81;102076.97;5049180;28;20025;-64
2023/06/04 08:54:14;;;;;;;2.50;1.95;;;;;;;20.84;30.61;102070.19;5050371;28;20686;-63
2023/06/04 08:56:39;;;;;;;3.45;1.73;;;;;;;20.84;30.35;102064.56;5049773;28;20036;-64
2023/06/04 08:59:07;;;;;;;2.22;2.00;;;;;;;20.92;31.11;102073.53;5053027;28;20820;-63
2023/06/04 09:01:33;;;;;;;2.20;2.00;;;;;;;20.94;30.70;102077.72;5070209;28;20036;-63
2023/06/04 09:04:03;;;;;;;5.07;2.03;;;;;;;20.96;29.73;102077.47;5070099;28;20039;-64
2023/06/04 09:06:30;;;;;;;4.05;1.80;;;;;;;21.04;30.57;102072.03;5069302;28;20119;-63
2023/06/04 09:09:00;;;;;;;3.33;2.20;;;;;;;21.08;30.15;102077.94;5069667;28;20458;-63
2023/06/04 09:11:36;;;;;;;2.03;1.67;;;;;;;21.17;30.91;102081.78;5069787;28;20036;-63
2023/06/04 09:14:07;;;;;;;1.85;1.50;;;;;;;21.19;29.85;102081.50;5064255;28;20917;-64
2023/06/04 09:16:37;;;;;;;2.92;1.50;;;;;;;21.20;27.76;102078.38;5069680;28;20031;-63
2023/06/04 09:19:04;;;;;;;2.72;1.50;;;;;;;21.29;28.87;102085.06;5083476;28;20039;-64
2023/06/04 09:21:29;;;;;;;2.03;1.40;;;;;;;21.35;27.42;102076.59;5076835;28;20127;-64
2023/06/04 09:23:54;;;;;;;3.45;1.52;;;;;;;21.35;27.31;102077.44;5064594;28;20096;-65
2023/06/04 09:26:24;;;;;;;2.15;1.40;;;;;;;21.39;28.46;102074.88;5058643;28;20028;-64
2023/06/04 09:28:52;;;;;;;3.00;1.50;;;;;;;21.40;27.30;102079.38;5053484;28;20541;-64
2023/06/04 09:31:26;;;;;;;3.88;1.67;;;;;;;21.39;27.63;102074.88;5054672;28;20024;-64
2023/06/04 09:33:51;;;;;;;2.45;1.50;;;;;;;21.48;27.33;102075.91;5055573;28;20035;-64
2023/06/04 09:36:17;;;;;;;1.60;1.48;;;;;;;21.49;27.34;102069.94;5048323;28;20029;-64
2023/06/04 09:38:45;;;;;;;2.75;1.30;;;;;;;21.52;27.25;102077.00;5049716;28;20116;-63
2023/06/04 09:41:21;;;;;;;3.40;1.52;;;;;;;21.58;28.65;102070.16;5053333;28;20446;-63
2023/06/04 09:43:47;;;;;;;2.60;1.23;;;;;;;21.64;27.05;102085.91;5054566;28;20480;-63
2023/06/04 09:46:17;;;;;;;3.67;1.50;;;;;;;21.60;26.82;102072.69;5053008;28;20114;-64
2023/06/04 09:48:43;;;;;;;2.85;1.40;;;;;;;21.61;28.21;102074.38;5061361;28;20025;-63
2023/06/04 09:51:10;;;;;;;4.00;1.52;;;;;;;21.66;27.49;102071.50;5053042;28;20140;-64
2023/06/04 09:53:37;;;;;;;2.15;1.38;;;;;;;21.73;27.15;102071.97;5059464;28;20032;-64
2023/06/04 09:56:04;;;;;;;3.78;1.70;;;;;;;21.74;27.84;102077.34;5053030;28;20029;-64
2023/06/04 09:58:30;;;;;;;2.05;1.60;;;;;;;21.81;29.19;102069.34;5071854;28;20036;-64
2023/06/04 10:00:58;;;;;;;2.80;1.60;;;;;;;21.81;27.55;102068.47;5073358;28;20021;-64
2023/06/04 10:03:32;;;;;;;1.60;1.30;;;;;;;21.83;27.56;102062.56;5071864;28;20025;-64
2023/06/04 10:05:59;;;;;;;2.25;1.60;;;;;;;21.90;27.76;102054.56;5071198;28;20444;-63
2023/06/04 10:08:26;;;;;;;3.72;1.40;;;;;;;21.90;27.02;102065.88;5053275;28;20036;-64
2023/06/04 10:10:54;;;;;;;6.75;1.40;;;;;;;21.90;27.27;102066.72;5061133;28;20078;-66
2023/06/04 10:13:21;;;;;;;3.83;1.50;;;;;;;21.99;27.17;102069.72;5061152;28;20045;-62
2023/06/04 10:15:47;;;;;;;2.17;1.20;;;;;;;22.00;27.70;102068.56;5077347;28;20037;-64
2023/06/04 10:18:14;;;;;;;3.20;1.17;;;;;;;21.99;26.80;102064.88;5092474;28;20051;-64
2023/06/04 10:20:40;;;;;;;2.25;1.40;;;;;;;22.10;27.51;102062.78;5083019;28;20367;-65
2023/06/04 10:23:07;;;;;;;1.25;1.02;;;;;;;22.12;27.96;102066.13;5069533;28;20033;-64
2023/06/04 10:25:35;;;;;;;1.70;0.90;;;;;;;22.16;27.70;102070.09;5071540;28;20040;-64
2023/06/04 10:28:02;;;;;;;1.60;1.10;;;;;;;22.27;28.48;102068.81;5071702;28;20072;-64
2023/06/04 10:30:29;;;;;;;3.30;1.20;;;;;;;22.24;26.23;102066.59;5070634;28;20036;-63
2023/06/04 10:32:56;;;;;;;2.05;1.15;;;;;;;22.29;26.50;102058.06;5070796;28;20024;-66
2023/06/04 10:35:35;;;;;;;2.08;1.50;;;;;;;22.34;26.54;102059.13;5058231;28;20033;-64
2023/06/04 10:38:08;;;;;;;3.38;1.40;;;;;;;22.39;26.44;102064.69;5069017;28;20024;-65
2023/06/04 10:40:35;;;;;;;2.10;1.13;;;;;;;22.44;26.23;102065.50;5074583;28;20091;-64
2023/06/04 10:43:07;;;;;;;3.25;1.10;;;;;;;22.44;26.05;102065.50;5067595;28;20390;-64
2023/06/04 10:45:33;;;;;;;3.70;1.40;;;;;;;22.47;25.69;102055.53;5070896;28;20039;-65
2023/06/04 10:48:05;;;;;;;1.27;1.00;;;;;;;22.56;26.68;102056.56;5079217;28;20118;-65
2023/06/04 10:50:33;;;;;;;3.08;1.20;;;;;;;22.60;25.91;102051.97;5077506;28;20036;-64
2023/06/04 10:53:02;;;;;;;2.83;1.30;;;;;;;22.63;27.03;102050.50;5070711;28;20016;-64
2023/06/04 10:55:28;;;;;;;3.42;1.20;;;;;;;22.64;25.88;102061.53;5075625;28;20024;-65
2023/06/04 10:57:55;;;;;;;2.22;1.30;;;;;;;22.63;26.69;102065.47;5088418;28;20020;-65
2023/06/04 11:00:22;;;;;;;3.63;1.10;;;;;;;22.70;26.82;102068.78;5065818;28;20032;-65
2023/06/04 11:03:09;;;;;;;1.27;1.10;;;;;;;22.76;27.89;102059.06;5071654;28;20061;-64
2023/06/04 11:05:36;;;;;;;3.70;1.27;;;;;;;22.81;27.11;102063.81;5084220;28;20038;-64
2023/06/04 11:08:02;;;;;;;3.47;1.40;;;;;;;22.87;26.81;102064.56;5073149;28;20024;-64
2023/06/04 11:10:41;;;;;;;3.47;1.33;;;;;;;22.79;26.50;102064.13;5070428;28;20131;-64
2023/06/04 11:13:07;;;;;;;1.98;1.10;;;;;;;22.84;26.00;102063.19;5069601;28;20045;-64
2023/06/04 11:15:48;;;;;;;1.75;1.10;;;;;;;22.87;25.68;102058.91;5078402;28;20029;-64
2023/06/04 11:18:18;;;;;;;1.95;1.10;;;;;;;22.90;25.90;102044.13;5068454;28;20045;-63
2023/06/04 11:20:59;;;;;;;3.75;1.35;;;;;;;22.92;26.69;102039.88;5052934;28;20130;-64